Página principal
METAR-TAF:

METAR-TAF

Aeroportos :

Ilha da Boa Vista, Cabo Verde

Aeroporto Internacional Aristides Pereira

latitude: 16-08-15N, longitude: 22-53-22W, altura: 21 m

Observação actual do tempo

O boletim foi feito há 4 horas e 49 minutos, às 19:00 UTC
Vento 10 kt de nor-nordeste
Temperatura 21°C
Humidade 73%
Pressão 1013 hPa
Visibilidade 10 km ou mais
Nuvens fragmentadasa uma altura de 1400 ft
Nuvens fragmentadasa uma altura de 10000 ft

METAR: GVBA 181900Z 02010KT 9999 BKN014 BKN100 21/16 Q1013 NOSIG

Hora: 22:49 (23:49 UTC)

Previsão

O boletim foi feito há 49 minutos, às 23:00 UTC
Previsão válida de 19 às 00 UTC a 20 às 06 UTC
Vento 13 kt de nordeste
Visibilidade 10 km ou mais
Nuvens dispersasa uma altura de 1400 ft

TAF: GVBA 182300Z 1900/2006 05013KT 9999 SCT014

Observações e previsões do tempo de mais de 4000 aeroportos (mensagens METAR e TAF).

As estações disponíveis são os pontos amarelos e vermelhos sobre o mapa.

Mova o rato sobre o mapa para ver o nome da estação.

Depois clique no ponto para visualizar as observações e previsões meteorológicas.

Para alterar o mapa : clique nos botões verdes com uma cruz preta para aumentar o zoom; no botão verde com uma pitada de zoom; ou nas setas verdes para mapas adjacentes.


METAR-TAF: